createdAt,value
2022-09-07T00:00:37.327Z,101394.78
2022-09-07T00:03:04.496Z,101395.66
2022-09-07T00:05:31.490Z,101387.91
2022-09-07T00:07:58.710Z,101393.06
2022-09-07T00:10:26.195Z,101395.66
2022-09-07T00:12:52.949Z,101411.34
2022-09-07T00:15:20.019Z,101410.50
2022-09-07T00:17:46.507Z,101409.59
2022-09-07T00:20:13.119Z,101401.84
2022-09-07T00:22:39.661Z,101404.38
2022-09-07T00:25:06.623Z,101399.19
2022-09-07T00:27:33.143Z,101394.00
2022-09-07T00:29:59.687Z,101388.81
2022-09-07T00:32:26.263Z,101368.88
2022-09-07T00:34:52.806Z,101371.38
2022-09-07T00:37:19.311Z,101367.06
2022-09-07T00:39:45.953Z,101346.22
2022-09-07T00:42:12.549Z,101333.25
2022-09-07T00:44:42.236Z,101341.88
2022-09-07T00:47:15.846Z,101334.88
2022-09-07T00:49:45.798Z,101341.81
2022-09-07T00:52:13.343Z,101327.00
2022-09-07T00:54:44.034Z,101328.78
2022-09-07T00:57:11.559Z,101315.84
2022-09-07T00:59:43.791Z,101315.91
2022-09-07T01:02:12.399Z,101322.81
2022-09-07T01:04:39.447Z,101328.91
2022-09-07T01:07:06.324Z,101342.72
2022-09-07T01:09:33.344Z,101337.56
2022-09-07T01:12:01.330Z,101340.97
2022-09-07T01:14:35.495Z,101329.69
2022-09-07T01:17:01.971Z,101327.97
2022-09-07T01:19:56.506Z,101329.69
2022-09-07T01:22:41.091Z,101330.59
2022-09-07T01:25:18.827Z,101329.72
2022-09-07T01:27:48.270Z,101333.19
2022-09-07T01:30:18.198Z,101332.34
2022-09-07T01:33:05.432Z,101334.88
2022-09-07T01:35:45.176Z,101327.94
2022-09-07T01:38:23.463Z,101323.56
2022-09-07T01:41:04.533Z,101321.88
2022-09-07T01:43:48.130Z,101305.38
2022-09-07T01:46:24.568Z,101310.59
2022-09-07T01:48:55.469Z,101309.69
2022-09-07T01:51:27.045Z,101310.59
2022-09-07T01:53:58.589Z,101306.22
2022-09-07T01:56:35.213Z,101306.19
2022-09-07T01:59:13.366Z,101288.84
2022-09-07T02:01:49.913Z,101287.16
2022-09-07T02:04:21.955Z,101299.28
2022-09-07T02:06:53.128Z,101282.78
2022-09-07T02:09:31.805Z,101281.06
2022-09-07T02:12:03.260Z,101279.38
2022-09-07T02:14:36.549Z,101272.44
2022-09-07T02:17:17.189Z,101255.22
2022-09-07T02:19:53.259Z,101256.13
2022-09-07T02:22:25.042Z,101258.72
2022-09-07T02:24:56.086Z,101263.09
2022-09-07T02:27:33.527Z,101261.47
2022-09-07T02:30:00.073Z,101265.03
2022-09-07T02:32:26.583Z,101258.91
2022-09-07T02:34:53.071Z,101257.25
2022-09-07T02:37:20.823Z,101252.97
2022-09-07T02:39:49.243Z,101251.22
2022-09-07T02:42:15.800Z,101250.38
2022-09-07T02:44:45.531Z,101253.88
2022-09-07T02:47:45.905Z,101256.44
2022-09-07T02:50:43.448Z,101257.28
2022-09-07T02:53:24.973Z,101261.63
2022-09-07T02:56:09.734Z,101265.03
2022-09-07T02:59:01.350Z,101258.13
2022-09-07T03:02:00.994Z,101245.94
2022-09-07T03:04:46.926Z,101241.69
2022-09-07T03:07:21.346Z,101241.69
2022-09-07T03:09:51.132Z,101245.16
2022-09-07T03:12:17.761Z,101245.09
2022-09-07T03:14:44.329Z,101253.81
2022-09-07T03:17:11.546Z,101254.72
2022-09-07T03:19:38.336Z,101253.88
2022-09-07T03:22:05.901Z,101252.16
2022-09-07T03:24:32.641Z,101257.44
2022-09-07T03:26:59.203Z,101256.63
2022-09-07T03:29:25.961Z,101243.69
2022-09-07T03:31:52.513Z,101243.69
2022-09-07T03:34:19.029Z,101241.13
2022-09-07T03:36:45.603Z,101239.44
2022-09-07T03:39:13.182Z,101238.59
2022-09-07T03:41:39.912Z,101248.13
2022-09-07T03:44:07.595Z,101248.13
2022-09-07T03:46:34.961Z,101250.78
2022-09-07T03:49:01.505Z,101236.13
2022-09-07T03:51:28.040Z,101247.34
2022-09-07T03:53:54.602Z,101256.09
2022-09-07T03:56:23.092Z,101250.03
2022-09-07T03:58:51.452Z,101235.38
2022-09-07T04:01:23.549Z,101240.59
2022-09-07T04:03:50.683Z,101239.75
2022-09-07T04:06:18.238Z,101222.44
2022-09-07T04:08:45.264Z,101223.28
2022-09-07T04:11:17.040Z,101231.13
2022-09-07T04:13:44.679Z,101223.34
2022-09-07T04:16:23.107Z,101219.88
2022-09-07T04:18:50.487Z,101211.25
2022-09-07T04:21:24.930Z,101211.28
2022-09-07T04:23:51.775Z,101207.00
2022-09-07T04:26:30.833Z,101207.00
2022-09-07T04:28:58.335Z,101208.75
2022-09-07T04:31:25.604Z,101206.19
2022-09-07T04:33:52.979Z,101207.09
2022-09-07T04:36:20.328Z,101204.50
2022-09-07T04:38:48.166Z,101200.19
2022-09-07T04:41:17.832Z,101202.78
2022-09-07T04:43:46.053Z,101198.47
2022-09-07T04:46:36.765Z,101203.69
2022-09-07T04:49:09.481Z,101212.34
2022-09-07T04:51:37.649Z,101208.06
2022-09-07T04:54:04.610Z,101217.59
2022-09-07T04:56:32.065Z,101215.03
2022-09-07T04:59:00.661Z,101221.06
2022-09-07T05:01:27.830Z,101210.75
2022-09-07T05:03:54.480Z,101227.16
2022-09-07T05:06:22.380Z,101226.34
2022-09-07T05:08:51.599Z,101212.50
2022-09-07T05:11:19.618Z,101219.44
2022-09-07T05:13:46.338Z,101227.19
2022-09-07T05:16:21.191Z,101224.63
2022-09-07T05:18:51.542Z,101240.19
2022-09-07T05:21:20.851Z,101242.78
2022-09-07T05:23:51.076Z,101235.00
2022-09-07T05:26:18.972Z,101238.44
2022-09-07T05:28:45.877Z,101233.28
2022-09-07T05:36:40.784Z,101228.91
2022-09-07T05:39:08.622Z,101228.06
2022-09-07T05:41:35.510Z,101236.66
2022-09-07T05:46:48.951Z,101226.16
2022-09-07T05:49:15.429Z,101227.69
2022-09-07T05:51:41.926Z,101223.03
2022-09-07T05:54:08.416Z,101220.53
2022-09-07T05:56:35.980Z,101211.75
2022-09-07T05:59:02.691Z,101206.56
2022-09-07T06:01:29.295Z,101216.78
2022-09-07T06:03:55.800Z,101228.69
2022-09-07T06:06:22.341Z,101228.84
2022-09-07T06:08:51.186Z,101228.91
2022-09-07T06:11:21.071Z,101218.44
2022-09-07T06:13:48.400Z,101221.72
2022-09-07T06:16:16.332Z,101218.75
2022-09-07T06:18:45.622Z,101209.53
2022-09-07T06:21:14.911Z,101223.63
2022-09-07T06:23:42.735Z,101235.22
2022-09-07T06:26:10.060Z,101240.94
2022-09-07T06:28:46.715Z,101242.31
2022-09-07T06:31:17.849Z,101248.03
2022-09-07T06:33:45.464Z,101249.28
2022-09-07T06:36:17.177Z,101254.84
2022-09-07T06:38:45.978Z,101246.78
2022-09-07T06:44:02.465Z,101265.50
2022-09-07T06:49:15.510Z,101267.06
2022-09-07T06:51:42.094Z,101277.22
2022-09-07T06:56:56.212Z,101267.25
2022-09-07T06:59:22.716Z,101278.25
2022-09-07T07:01:49.220Z,101288.75
2022-09-07T07:04:15.785Z,101273.38
2022-09-07T07:06:42.474Z,101275.47
2022-09-07T07:09:12.854Z,101276.91
2022-09-07T07:11:39.371Z,101272.16
2022-09-07T07:14:06.005Z,101271.75
2022-09-07T07:16:32.698Z,101270.59
2022-09-07T07:18:59.362Z,101268.06
2022-09-07T07:21:26.015Z,101280.03
2022-09-07T07:23:53.701Z,101283.19
2022-09-07T07:26:23.770Z,101300.16
2022-09-07T07:31:26.854Z,101288.53
2022-09-07T07:36:38.204Z,101293.91
2022-09-07T07:39:05.312Z,101293.09
2022-09-07T07:44:19.710Z,101307.91
2022-09-07T07:46:51.107Z,101301.19
2022-09-07T07:49:17.855Z,101290.91
2022-09-07T07:54:34.633Z,101312.81
2022-09-07T07:57:01.162Z,101311.19
2022-09-07T07:59:27.702Z,101302.81
2022-09-07T08:01:54.314Z,101310.91
2022-09-07T08:04:20.887Z,101312.56
2022-09-07T08:06:47.393Z,101320.66
2022-09-07T08:09:13.941Z,101324.34
2022-09-07T08:11:40.713Z,101317.09
2022-09-07T08:14:08.636Z,101320.78
2022-09-07T08:16:36.259Z,101325.16
2022-09-07T08:19:03.417Z,101321.50
2022-09-07T08:21:29.997Z,101322.75
2022-09-07T08:23:56.722Z,101323.91
2022-09-07T08:26:23.175Z,101323.91
2022-09-07T08:28:49.630Z,101321.72
2022-09-07T08:31:17.421Z,101320.09
2022-09-07T08:33:44.768Z,101331.06
2022-09-07T08:36:14.044Z,101327.13
2022-09-07T08:38:40.904Z,101328.41
2022-09-07T08:41:35.392Z,101327.16
2022-09-07T08:44:18.542Z,101328.13
2022-09-07T08:46:54.797Z,101321.00
2022-09-07T08:49:47.545Z,101320.56
2022-09-07T08:52:18.136Z,101312.41
2022-09-07T08:54:58.566Z,101316.22
2022-09-07T08:57:31.260Z,101326.31
2022-09-07T09:00:14.280Z,101324.13
2022-09-07T09:02:44.242Z,101321.22
2022-09-07T09:05:29.691Z,101312.41
2022-09-07T09:08:18.317Z,101311.47
2022-09-07T09:11:11.996Z,101319.56
2022-09-07T09:13:55.229Z,101310.59
2022-09-07T09:16:31.384Z,101318.84
2022-09-07T09:19:16.093Z,101320.94
2022-09-07T09:21:43.654Z,101312.97
2022-09-07T09:24:17.790Z,101308.75
2022-09-07T09:29:23.327Z,101308.38
2022-09-07T09:31:49.813Z,101305.16
2022-09-07T09:34:21.169Z,101300.41
2022-09-07T09:36:52.565Z,101314.88
2022-09-07T09:39:29.863Z,101313.00
2022-09-07T09:42:13.114Z,101317.13
2022-09-07T09:44:39.775Z,101308.31
2022-09-07T09:49:54.092Z,101319.50
2022-09-07T09:52:33.624Z,101314.56
2022-09-07T09:55:33.101Z,101321.25
2022-09-07T10:06:19.389Z,101307.94
2022-09-07T10:08:59.244Z,101306.94
2022-09-07T10:14:46.683Z,101316.97
2022-09-07T10:17:37.239Z,101322.50
2022-09-07T10:20:21.625Z,101316.28
2022-09-07T10:22:54.391Z,101310.75
2022-09-07T10:25:37.491Z,101316.47
2022-09-07T10:28:10.949Z,101321.72
2022-09-07T10:31:03.460Z,101311.66
2022-09-07T10:37:06.043Z,101322.75
2022-09-07T10:39:39.658Z,101321.63
2022-09-07T10:42:09.060Z,101324.50
2022-09-07T10:44:46.178Z,101309.84
2022-09-07T10:47:50.284Z,101316.63
2022-09-07T10:50:31.259Z,101311.72
2022-09-07T10:53:41.181Z,101315.25
2022-09-07T10:56:15.113Z,101308.88
2022-09-07T10:59:03.891Z,101302.38
2022-09-07T11:01:39.776Z,101311.56
2022-09-07T11:04:06.346Z,101303.63
2022-09-07T11:06:39.441Z,101298.09
2022-09-07T11:09:21.436Z,101291.81
2022-09-07T11:12:04.387Z,101296.72
2022-09-07T11:14:42.426Z,101302.09
2022-09-07T11:17:18.460Z,101298.91
2022-09-07T11:19:52.436Z,101294.56
2022-09-07T11:22:32.198Z,101302.63
2022-09-07T11:25:32.637Z,101307.56
2022-09-07T11:28:07.456Z,101297.84
2022-09-07T11:30:42.794Z,101293.91
2022-09-07T11:33:21.800Z,101295.19
2022-09-07T11:36:02.242Z,101303.13
2022-09-07T11:38:59.565Z,101289.63
2022-09-07T11:41:33.931Z,101288.34
2022-09-07T11:44:26.275Z,101290.94
2022-09-07T11:46:59.843Z,101284.81
2022-09-07T11:49:26.639Z,101290.72
2022-09-07T11:52:04.961Z,101294.00
2022-09-07T11:54:44.139Z,101289.09
2022-09-07T11:57:24.643Z,101288.72
2022-09-07T11:59:56.122Z,101287.41
2022-09-07T12:03:00.015Z,101285.34
2022-09-07T12:06:05.823Z,101284.75
2022-09-07T12:08:53.663Z,101280.47
2022-09-07T12:11:48.623Z,101278.69
2022-09-07T12:14:21.060Z,101281.22
2022-09-07T12:17:11.721Z,101273.13
2022-09-07T12:19:38.398Z,101272.16
2022-09-07T12:22:05.455Z,101271.78
2022-09-07T12:24:48.488Z,101276.66
2022-09-07T12:27:20.978Z,101279.13
2022-09-07T12:29:48.048Z,101273.63
2022-09-07T12:32:55.217Z,101279.50
2022-09-07T12:35:28.713Z,101271.78
2022-09-07T12:38:02.746Z,101276.34
2022-09-07T12:40:29.161Z,101273.88
2022-09-07T12:43:13.876Z,101273.72
2022-09-07T12:45:40.378Z,101271.03
2022-09-07T12:48:16.055Z,101263.72
2022-09-07T12:51:00.513Z,101264.94
2022-09-07T12:53:29.986Z,101262.34
2022-09-07T12:58:46.696Z,101254.94
2022-09-07T13:01:51.364Z,101252.75
2022-09-07T13:05:00.068Z,101246.47
2022-09-07T13:07:39.021Z,101236.81
2022-09-07T13:10:23.603Z,101242.91
2022-09-07T13:12:56.476Z,101234.31
2022-09-07T13:15:41.390Z,101238.84
2022-09-07T13:18:31.448Z,101231.72
2022-09-07T13:21:07.260Z,101235.94
2022-09-07T13:23:37.950Z,101226.84
2022-09-07T13:26:08.719Z,101234.31
2022-09-07T13:28:58.019Z,101222.53
2022-09-07T13:31:53.015Z,101223.69
2022-09-07T13:34:34.993Z,101228.97
2022-09-07T13:37:03.309Z,101216.06
2022-09-07T13:39:38.907Z,101228.06
2022-09-07T13:42:06.496Z,101213.94
2022-09-07T13:44:34.467Z,101212.63
2022-09-07T13:47:31.395Z,101211.19
2022-09-07T13:50:12.336Z,101213.19
2022-09-07T13:52:48.024Z,101205.41
2022-09-07T13:55:45.555Z,101201.72
2022-09-07T13:58:19.763Z,101209.75
2022-09-07T14:01:00.252Z,101204.22
2022-09-07T14:03:30.847Z,101209.47
2022-09-07T14:06:20.541Z,101211.47
2022-09-07T14:08:59.258Z,101209.75
2022-09-07T14:11:36.323Z,101207.75
2022-09-07T14:14:25.988Z,101207.63
2022-09-07T14:17:01.394Z,101202.53
2022-09-07T14:19:46.340Z,101201.31
2022-09-07T14:22:19.177Z,101206.25
2022-09-07T14:24:54.403Z,101200.47
2022-09-07T14:27:22.619Z,101204.06
2022-09-07T14:29:49.256Z,101202.09
2022-09-07T14:32:20.049Z,101193.94
2022-09-07T14:34:47.110Z,101194.91
2022-09-07T14:37:16.389Z,101203.00
2022-09-07T14:39:46.746Z,101193.03
2022-09-07T14:42:17.277Z,101204.19
2022-09-07T14:44:44.924Z,101197.66
2022-09-07T14:47:30.866Z,101195.44
2022-09-07T14:50:05.777Z,101188.34
2022-09-07T14:52:43.009Z,101187.53
2022-09-07T14:55:30.783Z,101189.19
2022-09-07T14:58:22.835Z,101191.56
2022-09-07T15:04:01.759Z,101177.81
2022-09-07T15:09:38.097Z,101183.16
2022-09-07T15:12:14.066Z,101182.63
2022-09-07T15:14:40.567Z,101181.44
2022-09-07T15:20:37.310Z,101180.94
2022-09-07T15:23:05.985Z,101182.78
2022-09-07T15:25:34.926Z,101175.81
2022-09-07T15:28:01.630Z,101181.91
2022-09-07T15:30:28.467Z,101182.78
2022-09-07T15:32:56.848Z,101177.06
2022-09-07T15:35:23.856Z,101166.97
2022-09-07T15:38:58.961Z,101171.38
2022-09-07T15:41:18.139Z,101163.06
2022-09-07T15:43:37.920Z,101166.09
2022-09-07T15:46:05.015Z,101173.91
2022-09-07T15:48:31.716Z,101165.03
2022-09-07T15:54:18.233Z,101164.19
2022-09-07T15:57:48.290Z,101159.84
2022-09-07T15:59:31.336Z,101160.63
2022-09-07T16:01:58.635Z,101168.59
2022-09-07T16:04:25.506Z,101155.97
2022-09-07T16:06:52.060Z,101164.66
2022-09-07T16:09:21.703Z,101152.78
2022-09-07T16:11:50.171Z,101161.94
2022-09-07T16:14:17.545Z,101147.59
2022-09-07T16:19:34.977Z,101157.41
2022-09-07T16:22:02.177Z,101142.66
2022-09-07T16:24:28.875Z,101150.72
2022-09-07T16:26:55.462Z,101152.38
2022-09-07T16:29:21.975Z,101155.84
2022-09-07T16:34:35.297Z,101151.06
2022-09-07T16:37:02.035Z,101152.09
2022-09-07T16:39:29.142Z,101152.72
2022-09-07T16:41:56.169Z,101139.69
2022-09-07T16:44:23.128Z,101142.44
2022-09-07T16:46:50.421Z,101144.47
2022-09-07T16:49:17.695Z,101143.97
2022-09-07T16:51:45.748Z,101144.31
2022-09-07T16:54:13.648Z,101145.38
2022-09-07T16:56:40.161Z,101155.09
2022-09-07T16:59:09.496Z,101153.34
2022-09-07T17:01:38.019Z,101154.41
2022-09-07T17:04:10.396Z,101145.88
2022-09-07T17:06:37.995Z,101156.69
2022-09-07T17:09:04.689Z,101143.09
2022-09-07T17:11:34.747Z,101155.47
2022-09-07T17:14:01.975Z,101152.06
2022-09-07T17:16:32.079Z,101145.34
2022-09-07T17:21:50.134Z,101146.81
2022-09-07T17:24:17.230Z,101145.38
2022-09-07T17:26:44.037Z,101144.97
2022-09-07T17:29:13.086Z,101139.75
2022-09-07T17:34:26.432Z,101130.88
2022-09-07T17:36:52.922Z,101137.19
2022-09-07T17:39:19.899Z,101136.53
2022-09-07T17:41:52.713Z,101140.25
2022-09-07T17:44:19.410Z,101134.31
2022-09-07T17:46:46.048Z,101137.16
2022-09-07T17:49:14.404Z,101138.06
2022-09-07T17:51:41.395Z,101143.63
2022-09-07T17:54:11.984Z,101150.75
2022-09-07T17:56:40.299Z,101140.44
2022-09-07T18:01:56.501Z,101139.06
2022-09-07T18:04:23.598Z,101128.03
2022-09-07T18:06:50.450Z,101130.81
2022-09-07T18:09:19.808Z,101135.34
2022-09-07T18:11:48.115Z,101137.19
2022-09-07T18:14:16.290Z,101139.22
2022-09-07T18:16:45.462Z,101131.47
2022-09-07T18:19:12.692Z,101126.47
2022-09-07T18:21:42.065Z,101136.94
2022-09-07T18:24:16.647Z,101129.34
2022-09-07T18:26:44.560Z,101141.72
2022-09-07T18:29:28.193Z,101141.00
2022-09-07T18:31:56.997Z,101142.03
2022-09-07T18:34:23.577Z,101136.09
2022-09-07T18:36:50.300Z,101137.09
2022-09-07T18:39:16.892Z,101132.88
2022-09-07T18:41:43.392Z,101126.03
2022-09-07T18:46:56.445Z,101125.50
2022-09-07T18:49:24.529Z,101132.47
2022-09-07T18:54:37.852Z,101131.03
2022-09-07T18:57:04.469Z,101130.28
2022-09-07T18:59:31.024Z,101128.66
2022-09-07T19:02:03.027Z,101128.81
2022-09-07T19:07:17.963Z,101128.13
2022-09-07T19:09:44.507Z,101127.34
2022-09-07T19:12:11.056Z,101125.69
2022-09-07T19:14:37.642Z,101124.00
2022-09-07T19:17:04.294Z,101124.06
2022-09-07T19:19:31.045Z,101116.34
2022-09-07T19:21:58.261Z,101113.66
2022-09-07T19:24:25.767Z,101124.13
2022-09-07T19:26:54.760Z,101129.38
2022-09-07T19:29:25.187Z,101120.75
2022-09-07T19:32:06.910Z,101119.78
2022-09-07T19:34:36.240Z,101130.22
2022-09-07T19:37:03.987Z,101140.59
2022-09-07T19:39:30.610Z,101139.78
2022-09-07T19:41:57.234Z,101133.81
2022-09-07T19:44:23.746Z,101133.09
2022-09-07T19:46:50.661Z,101128.69
2022-09-07T19:49:17.674Z,101137.34
2022-09-07T19:51:44.217Z,101128.75
2022-09-07T19:54:11.938Z,101131.41
2022-09-07T19:56:40.317Z,101126.13
2022-09-07T19:59:07.434Z,101127.06
2022-09-07T20:01:35.117Z,101124.50
2022-09-07T20:04:04.565Z,101124.56
2022-09-07T20:06:35.705Z,101110.97
2022-09-07T20:09:02.332Z,101114.44
2022-09-07T20:11:29.137Z,101118.72
2022-09-07T20:13:57.137Z,101111.72
2022-09-07T20:16:24.338Z,101103.81
2022-09-07T20:18:51.458Z,101103.81
2022-09-07T20:21:21.453Z,101100.38
2022-09-07T20:23:48.731Z,101094.28
2022-09-07T20:26:17.793Z,101099.59
2022-09-07T20:28:44.862Z,101095.34
2022-09-07T20:31:16.262Z,101085.91
2022-09-07T20:33:44.886Z,101096.47
2022-09-07T20:36:13.821Z,101095.69
2022-09-07T20:38:48.545Z,101089.69
2022-09-07T20:41:18.342Z,101089.81
2022-09-07T20:43:45.061Z,101093.28
2022-09-07T20:46:11.713Z,101089.91
2022-09-07T20:48:39.211Z,101090.84
2022-09-07T20:51:09.469Z,101096.09
2022-09-07T20:53:37.105Z,101084.88
2022-09-07T20:56:16.025Z,101077.97
2022-09-07T20:58:43.707Z,101077.09
2022-09-07T21:01:14.774Z,101076.22
2022-09-07T21:03:51.497Z,101066.72
2022-09-07T21:06:19.113Z,101074.44
2022-09-07T21:08:47.184Z,101072.78
2022-09-07T21:11:15.467Z,101078.00
2022-09-07T21:13:42.825Z,101065.09
2022-09-07T21:16:16.529Z,101072.09
2022-09-07T21:18:44.523Z,101082.59
2022-09-07T21:21:20.457Z,101077.47
2022-09-07T21:23:47.935Z,101080.16
2022-09-07T21:26:14.689Z,101081.13
2022-09-07T21:28:41.167Z,101068.13
2022-09-07T21:31:09.142Z,101069.06
2022-09-07T21:33:37.327Z,101072.56
2022-09-07T21:36:12.668Z,101053.59
2022-09-07T21:38:41.083Z,101070.81
2022-09-07T21:41:09.735Z,101064.66
2022-09-07T21:43:36.923Z,101071.50
2022-09-07T21:46:14.110Z,101071.56
2022-09-07T21:48:40.797Z,101072.41
2022-09-07T21:51:08.015Z,101061.91
2022-09-07T21:53:35.275Z,101060.22
2022-09-07T21:56:04.787Z,101059.31
2022-09-07T21:58:32.667Z,101062.75
2022-09-07T22:01:03.370Z,101053.22
2022-09-07T22:03:30.024Z,101054.06
2022-09-07T22:05:56.484Z,101055.88
2022-09-07T22:08:22.961Z,101051.56
2022-09-07T22:10:49.405Z,101050.63
2022-09-07T22:13:15.912Z,101055.88
2022-09-07T22:15:42.664Z,101050.63
2022-09-07T22:18:12.384Z,101041.97
2022-09-07T22:20:39.431Z,101044.56
2022-09-07T22:23:06.106Z,101039.34
2022-09-07T22:25:33.326Z,101034.09
2022-09-07T22:28:00.220Z,101037.53
2022-09-07T22:30:27.208Z,101034.94
2022-09-07T22:32:53.751Z,101029.69
2022-09-07T22:35:21.437Z,101025.31
2022-09-07T22:37:47.917Z,101015.84
2022-09-07T22:40:14.869Z,101011.53
2022-09-07T22:42:41.918Z,101008.09
2022-09-07T22:45:09.070Z,101008.03
2022-09-07T22:47:35.557Z,101015.75
2022-09-07T22:50:02.020Z,101007.03
2022-09-07T22:52:28.513Z,101003.56
2022-09-07T22:54:54.961Z,101007.84
2022-09-07T22:57:21.434Z,101013.91
2022-09-07T22:59:47.880Z,101015.66
2022-09-07T23:02:14.352Z,101002.63
2022-09-07T23:04:41.260Z,101012.09
2022-09-07T23:07:07.957Z,101000.88
2022-09-07T23:09:34.531Z,101005.13
2022-09-07T23:12:01.065Z,101006.88
2022-09-07T23:14:27.625Z,100993.84
2022-09-07T23:16:54.101Z,101001.63
2022-09-07T23:19:21.057Z,100999.03
2022-09-07T23:21:47.761Z,100990.38
2022-09-07T23:24:16.812Z,100998.19
2022-09-07T23:26:44.061Z,100988.59
2022-09-07T23:29:12.575Z,100994.69
2022-09-07T23:31:40.208Z,100994.75
2022-09-07T23:34:07.777Z,100988.53
2022-09-07T23:36:34.313Z,100984.16
2022-09-07T23:39:01.319Z,100980.69
2022-09-07T23:41:28.885Z,100975.47
2022-09-07T23:43:56.026Z,100970.19
2022-09-07T23:46:23.245Z,100982.34
2022-09-07T23:48:50.431Z,100981.53
2022-09-07T23:51:22.729Z,100986.75
2022-09-07T23:53:50.990Z,100973.72
2022-09-07T23:56:17.483Z,100958.91
2022-09-07T23:58:44.055Z,100952.75
